sensor_id;sensor_type;location;lat;lon;timestamp;temperature;humidity
70271;SHT31;57680;54.292;18.598;2022-09-29T00:01:28;7.28;95.35
70271;SHT31;57680;54.292;18.598;2022-09-29T00:03:53;7.28;95.26
70271;SHT31;57680;54.292;18.598;2022-09-29T00:06:19;7.30;95.16
70271;SHT31;57680;54.292;18.598;2022-09-29T00:08:45;7.30;95.19
70271;SHT31;57680;54.292;18.598;2022-09-29T00:11:14;7.30;95.02
70271;SHT31;57680;54.292;18.598;2022-09-29T00:13:40;7.31;94.92
70271;SHT31;57680;54.292;18.598;2022-09-29T00:16:05;7.34;94.76
70271;SHT31;57680;54.292;18.598;2022-09-29T00:18:32;7.35;94.56
70271;SHT31;57680;54.292;18.598;2022-09-29T00:21:03;7.38;94.39
70271;SHT31;57680;54.292;18.598;2022-09-29T00:23:29;7.42;94.29
70271;SHT31;57680;54.292;18.598;2022-09-29T00:26:00;7.46;94.22
70271;SHT31;57680;54.292;18.598;2022-09-29T00:28:27;7.46;94.00
70271;SHT31;57680;54.292;18.598;2022-09-29T00:30:52;7.46;93.71
70271;SHT31;57680;54.292;18.598;2022-09-29T00:33:18;7.47;93.55
70271;SHT31;57680;54.292;18.598;2022-09-29T00:35:43;7.47;93.64
70271;SHT31;57680;54.292;18.598;2022-09-29T00:38:09;7.54;93.64
70271;SHT31;57680;54.292;18.598;2022-09-29T00:40:34;7.54;93.51
70271;SHT31;57680;54.292;18.598;2022-09-29T00:43:00;7.57;93.48
70271;SHT31;57680;54.292;18.598;2022-09-29T00:45:26;7.60;93.41
70271;SHT31;57680;54.292;18.598;2022-09-29T00:48:12;7.63;93.26
70271;SHT31;57680;54.292;18.598;2022-09-29T00:50:43;7.64;93.12
70271;SHT31;57680;54.292;18.598;2022-09-29T00:53:11;7.67;93.16
70271;SHT31;57680;54.292;18.598;2022-09-29T00:55:44;7.74;93.08
70271;SHT31;57680;54.292;18.598;2022-09-29T00:58:27;7.79;92.65
70271;SHT31;57680;54.292;18.598;2022-09-29T01:00:54;7.88;92.46
70271;SHT31;57680;54.292;18.598;2022-09-29T01:03:21;7.96;91.94
70271;SHT31;57680;54.292;18.598;2022-09-29T01:06:05;7.98;91.97
70271;SHT31;57680;54.292;18.598;2022-09-29T01:11:10;7.92;92.08
70271;SHT31;57680;54.292;18.598;2022-09-29T01:13:37;7.94;91.96
70271;SHT31;57680;54.292;18.598;2022-09-29T01:16:03;7.98;91.58
70271;SHT31;57680;54.292;18.598;2022-09-29T01:18:29;7.99;91.31
70271;SHT31;57680;54.292;18.598;2022-09-29T01:21:20;8.02;91.20
70271;SHT31;57680;54.292;18.598;2022-09-29T01:29:53;8.03;91.63
70271;SHT31;57680;54.292;18.598;2022-09-29T01:40:13;8.02;92.03
70271;SHT31;57680;54.292;18.598;2022-09-29T01:45:25;8.03;92.37
70271;SHT31;57680;54.292;18.598;2022-09-29T01:47:57;8.03;92.56
70271;SHT31;57680;54.292;18.598;2022-09-29T01:50:45;8.03;92.60
70271;SHT31;57680;54.292;18.598;2022-09-29T01:53:18;8.01;92.68
70271;SHT31;57680;54.292;18.598;2022-09-29T01:55:54;8.01;92.76
70271;SHT31;57680;54.292;18.598;2022-09-29T01:58:31;7.98;92.76
70271;SHT31;57680;54.292;18.598;2022-09-29T02:01:00;7.94;92.68
70271;SHT31;57680;54.292;18.598;2022-09-29T02:03:36;7.89;92.70
70271;SHT31;57680;54.292;18.598;2022-09-29T02:06:11;7.85;92.75
70271;SHT31;57680;54.292;18.598;2022-09-29T02:08:55;7.85;92.98
70271;SHT31;57680;54.292;18.598;2022-09-29T02:11:21;7.79;93.20
70271;SHT31;57680;54.292;18.598;2022-09-29T02:13:50;7.77;93.34
70271;SHT31;57680;54.292;18.598;2022-09-29T02:16:22;7.75;93.45
70271;SHT31;57680;54.292;18.598;2022-09-29T02:18:55;7.73;93.54
70271;SHT31;57680;54.292;18.598;2022-09-29T02:21:22;7.70;93.66
70271;SHT31;57680;54.292;18.598;2022-09-29T02:23:50;7.73;93.73
70271;SHT31;57680;54.292;18.598;2022-09-29T02:26:16;7.73;93.77
70271;SHT31;57680;54.292;18.598;2022-09-29T02:28:44;7.71;93.65
70271;SHT31;57680;54.292;18.598;2022-09-29T02:31:09;7.71;93.75
70271;SHT31;57680;54.292;18.598;2022-09-29T02:33:35;7.70;93.82
70271;SHT31;57680;54.292;18.598;2022-09-29T02:42:28;7.70;93.74
70271;SHT31;57680;54.292;18.598;2022-09-29T02:47:50;7.78;93.26
70271;SHT31;57680;54.292;18.598;2022-09-29T02:56:39;8.09;91.73
70271;SHT31;57680;54.292;18.598;2022-09-29T02:59:10;8.16;91.30
70271;SHT31;57680;54.292;18.598;2022-09-29T03:01:48;8.26;90.48
70271;SHT31;57680;54.292;18.598;2022-09-29T03:04:14;8.30;90.11
70271;SHT31;57680;54.292;18.598;2022-09-29T03:06:40;8.30;90.08
70271;SHT31;57680;54.292;18.598;2022-09-29T03:09:05;8.33;90.00
70271;SHT31;57680;54.292;18.598;2022-09-29T03:11:31;8.32;90.07
70271;SHT31;57680;54.292;18.598;2022-09-29T03:13:56;8.33;90.09
70271;SHT31;57680;54.292;18.598;2022-09-29T03:16:22;8.32;90.31
70271;SHT31;57680;54.292;18.598;2022-09-29T03:18:47;8.32;90.49
70271;SHT31;57680;54.292;18.598;2022-09-29T03:21:13;8.29;90.60
70271;SHT31;57680;54.292;18.598;2022-09-29T03:23:38;8.29;90.60
70271;SHT31;57680;54.292;18.598;2022-09-29T03:26:04;8.29;90.80
70271;SHT31;57680;54.292;18.598;2022-09-29T03:28:30;8.25;91.16
70271;SHT31;57680;54.292;18.598;2022-09-29T03:30:55;8.23;91.38
70271;SHT31;57680;54.292;18.598;2022-09-29T03:33:21;8.23;91.51
70271;SHT31;57680;54.292;18.598;2022-09-29T03:35:46;8.21;91.67
70271;SHT31;57680;54.292;18.598;2022-09-29T03:38:12;8.16;91.69
70271;SHT31;57680;54.292;18.598;2022-09-29T03:40:37;8.15;91.75
70271;SHT31;57680;54.292;18.598;2022-09-29T03:43:03;8.13;91.82
70271;SHT31;57680;54.292;18.598;2022-09-29T03:45:28;8.10;91.92
70271;SHT31;57680;54.292;18.598;2022-09-29T03:47:54;8.10;91.93
70271;SHT31;57680;54.292;18.598;2022-09-29T03:50:19;8.09;92.10
70271;SHT31;57680;54.292;18.598;2022-09-29T03:52:45;8.07;92.39
70271;SHT31;57680;54.292;18.598;2022-09-29T03:55:10;8.05;92.38
70271;SHT31;57680;54.292;18.598;2022-09-29T03:57:36;8.03;92.39
70271;SHT31;57680;54.292;18.598;2022-09-29T04:00:02;8.02;92.57
70271;SHT31;57680;54.292;18.598;2022-09-29T04:02:28;8.03;92.54
70271;SHT31;57680;54.292;18.598;2022-09-29T04:04:53;7.99;92.67
70271;SHT31;57680;54.292;18.598;2022-09-29T04:07:19;8.01;92.60
70271;SHT31;57680;54.292;18.598;2022-09-29T04:09:44;7.98;92.49
70271;SHT31;57680;54.292;18.598;2022-09-29T04:12:10;7.94;92.57
70271;SHT31;57680;54.292;18.598;2022-09-29T04:14:35;7.91;92.53
70271;SHT31;57680;54.292;18.598;2022-09-29T04:17:01;7.89;92.59
70271;SHT31;57680;54.292;18.598;2022-09-29T04:19:26;7.85;92.40
70271;SHT31;57680;54.292;18.598;2022-09-29T04:21:52;7.88;92.34
70271;SHT31;57680;54.292;18.598;2022-09-29T04:24:17;7.86;92.37
70271;SHT31;57680;54.292;18.598;2022-09-29T04:26:43;7.81;92.23
70271;SHT31;57680;54.292;18.598;2022-09-29T04:29:09;7.81;92.16
70271;SHT31;57680;54.292;18.598;2022-09-29T04:31:35;7.78;92.56
70271;SHT31;57680;54.292;18.598;2022-09-29T04:34:00;7.73;92.45
70271;SHT31;57680;54.292;18.598;2022-09-29T04:36:26;7.74;92.37
70271;SHT31;57680;54.292;18.598;2022-09-29T04:38:51;7.77;92.78
70271;SHT31;57680;54.292;18.598;2022-09-29T04:41:17;7.82;92.90
70271;SHT31;57680;54.292;18.598;2022-09-29T04:43:43;7.85;92.87
70271;SHT31;57680;54.292;18.598;2022-09-29T04:46:09;7.86;92.91
70271;SHT31;57680;54.292;18.598;2022-09-29T04:48:35;7.89;92.63
70271;SHT31;57680;54.292;18.598;2022-09-29T04:51:03;7.89;92.56
70271;SHT31;57680;54.292;18.598;2022-09-29T04:53:29;7.92;92.61
70271;SHT31;57680;54.292;18.598;2022-09-29T04:55:54;7.95;92.55
70271;SHT31;57680;54.292;18.598;2022-09-29T04:58:20;7.94;92.50
70271;SHT31;57680;54.292;18.598;2022-09-29T05:00:45;7.99;92.54
70271;SHT31;57680;54.292;18.598;2022-09-29T05:03:11;8.01;92.61
70271;SHT31;57680;54.292;18.598;2022-09-29T05:05:37;7.95;92.87
70271;SHT31;57680;54.292;18.598;2022-09-29T05:08:03;7.98;92.77
70271;SHT31;57680;54.292;18.598;2022-09-29T05:10:29;7.98;92.81
70271;SHT31;57680;54.292;18.598;2022-09-29T05:12:55;8.10;92.75
70271;SHT31;57680;54.292;18.598;2022-09-29T05:15:21;8.23;92.56
70271;SHT31;57680;54.292;18.598;2022-09-29T05:17:47;8.23;92.41
70271;SHT31;57680;54.292;18.598;2022-09-29T05:20:13;8.22;92.25
70271;SHT31;57680;54.292;18.598;2022-09-29T05:22:40;8.25;92.19
70271;SHT31;57680;54.292;18.598;2022-09-29T05:25:06;8.25;91.83
70271;SHT31;57680;54.292;18.598;2022-09-29T05:27:36;8.35;91.68
70271;SHT31;57680;54.292;18.598;2022-09-29T05:30:03;8.67;91.20
70271;SHT31;57680;54.292;18.598;2022-09-29T05:32:31;8.95;90.47
70271;SHT31;57680;54.292;18.598;2022-09-29T05:34:57;9.07;89.46
70271;SHT31;57680;54.292;18.598;2022-09-29T05:37:23;9.05;89.36
70271;SHT31;57680;54.292;18.598;2022-09-29T05:39:49;8.87;89.65
70271;SHT31;57680;54.292;18.598;2022-09-29T05:42:15;9.25;89.42
70271;SHT31;57680;54.292;18.598;2022-09-29T05:44:40;9.73;86.99
70271;SHT31;57680;54.292;18.598;2022-09-29T05:47:06;10.15;86.60
70271;SHT31;57680;54.292;18.598;2022-09-29T05:49:31;10.31;85.24
70271;SHT31;57680;54.292;18.598;2022-09-29T05:51:58;10.22;84.95
70271;SHT31;57680;54.292;18.598;2022-09-29T05:54:24;9.98;85.29
70271;SHT31;57680;54.292;18.598;2022-09-29T05:56:51;9.90;85.64
70271;SHT31;57680;54.292;18.598;2022-09-29T05:59:17;9.83;85.87
70271;SHT31;57680;54.292;18.598;2022-09-29T06:01:42;9.83;86.00
70271;SHT31;57680;54.292;18.598;2022-09-29T06:04:08;9.93;86.72
70271;SHT31;57680;54.292;18.598;2022-09-29T06:06:34;10.22;86.68
70271;SHT31;57680;54.292;18.598;2022-09-29T06:09:01;10.95;84.01
70271;SHT31;57680;54.292;18.598;2022-09-29T06:11:29;11.38;82.85
70271;SHT31;57680;54.292;18.598;2022-09-29T06:13:58;11.71;80.49
70271;SHT31;57680;54.292;18.598;2022-09-29T06:16:28;11.37;80.37
70271;SHT31;57680;54.292;18.598;2022-09-29T06:18:54;11.19;81.27
70271;SHT31;57680;54.292;18.598;2022-09-29T06:21:22;10.95;82.04
70271;SHT31;57680;54.292;18.598;2022-09-29T06:23:49;10.75;83.11
70271;SHT31;57680;54.292;18.598;2022-09-29T06:26:17;10.66;83.70
70271;SHT31;57680;54.292;18.598;2022-09-29T06:28:43;10.59;83.56
70271;SHT31;57680;54.292;18.598;2022-09-29T06:31:16;10.65;84.32
70271;SHT31;57680;54.292;18.598;2022-09-29T06:33:43;10.64;85.42
70271;SHT31;57680;54.292;18.598;2022-09-29T06:39:01;10.59;84.90
70271;SHT31;57680;54.292;18.598;2022-09-29T06:41:26;10.61;84.19
70271;SHT31;57680;54.292;18.598;2022-09-29T06:43:59;10.80;83.93
70271;SHT31;57680;54.292;18.598;2022-09-29T06:46:29;10.80;83.62
70271;SHT31;57680;54.292;18.598;2022-09-29T06:48:55;10.75;83.56
70271;SHT31;57680;54.292;18.598;2022-09-29T06:51:22;10.73;84.20
70271;SHT31;57680;54.292;18.598;2022-09-29T06:53:48;10.65;84.18
70271;SHT31;57680;54.292;18.598;2022-09-29T06:56:15;10.68;84.37
70271;SHT31;57680;54.292;18.598;2022-09-29T06:58:41;10.77;83.95
70271;SHT31;57680;54.292;18.598;2022-09-29T07:01:07;10.72;83.60
70271;SHT31;57680;54.292;18.598;2022-09-29T07:03:33;10.71;83.28
70271;SHT31;57680;54.292;18.598;2022-09-29T07:06:06;10.77;83.99
70271;SHT31;57680;54.292;18.598;2022-09-29T07:08:32;10.82;84.14
70271;SHT31;57680;54.292;18.598;2022-09-29T07:11:00;10.88;84.29
70271;SHT31;57680;54.292;18.598;2022-09-29T07:13:28;10.86;83.25
70271;SHT31;57680;54.292;18.598;2022-09-29T07:15:53;10.91;84.44
70271;SHT31;57680;54.292;18.598;2022-09-29T07:18:19;10.83;83.85
70271;SHT31;57680;54.292;18.598;2022-09-29T07:20:45;10.89;84.05
70271;SHT31;57680;54.292;18.598;2022-09-29T07:23:10;10.88;84.08
70271;SHT31;57680;54.292;18.598;2022-09-29T07:25:36;10.79;83.83
70271;SHT31;57680;54.292;18.598;2022-09-29T07:28:01;10.73;83.56
70271;SHT31;57680;54.292;18.598;2022-09-29T07:30:27;10.83;84.59
70271;SHT31;57680;54.292;18.598;2022-09-29T07:32:53;10.95;83.43
70271;SHT31;57680;54.292;18.598;2022-09-29T07:35:22;11.10;83.16
70271;SHT31;57680;54.292;18.598;2022-09-29T07:37:54;11.04;83.21
70271;SHT31;57680;54.292;18.598;2022-09-29T07:40:20;11.23;83.02
70271;SHT31;57680;54.292;18.598;2022-09-29T07:42:47;11.70;82.33
70271;SHT31;57680;54.292;18.598;2022-09-29T07:45:15;12.01;81.32
70271;SHT31;57680;54.292;18.598;2022-09-29T07:47:40;12.21;79.91
70271;SHT31;57680;54.292;18.598;2022-09-29T07:50:06;12.37;79.22
70271;SHT31;57680;54.292;18.598;2022-09-29T07:52:31;12.42;78.03
70271;SHT31;57680;54.292;18.598;2022-09-29T07:54:57;12.54;78.62
70271;SHT31;57680;54.292;18.598;2022-09-29T07:57:22;12.74;78.28
70271;SHT31;57680;54.292;18.598;2022-09-29T07:59:48;12.79;76.43
70271;SHT31;57680;54.292;18.598;2022-09-29T08:02:13;12.90;76.38
70271;SHT31;57680;54.292;18.598;2022-09-29T08:04:39;12.95;75.05
70271;SHT31;57680;54.292;18.598;2022-09-29T08:07:05;13.07;75.59
70271;SHT31;57680;54.292;18.598;2022-09-29T08:09:30;13.18;75.44
70271;SHT31;57680;54.292;18.598;2022-09-29T08:11:56;13.34;75.75
70271;SHT31;57680;54.292;18.598;2022-09-29T08:14:21;13.43;75.39
70271;SHT31;57680;54.292;18.598;2022-09-29T08:16:47;13.35;75.15
70271;SHT31;57680;54.292;18.598;2022-09-29T08:19:12;13.22;73.60
70271;SHT31;57680;54.292;18.598;2022-09-29T08:21:38;13.25;75.29
70271;SHT31;57680;54.292;18.598;2022-09-29T08:24:05;13.39;74.26
70271;SHT31;57680;54.292;18.598;2022-09-29T08:26:32;13.53;74.37
70271;SHT31;57680;54.292;18.598;2022-09-29T08:29:02;13.74;75.11
70271;SHT31;57680;54.292;18.598;2022-09-29T08:31:28;13.74;73.52
70271;SHT31;57680;54.292;18.598;2022-09-29T08:33:56;13.69;73.37
70271;SHT31;57680;54.292;18.598;2022-09-29T08:36:25;13.84;73.64
70271;SHT31;57680;54.292;18.598;2022-09-29T08:38:52;13.99;73.35
70271;SHT31;57680;54.292;18.598;2022-09-29T08:43:49;14.12;72.72
70271;SHT31;57680;54.292;18.598;2022-09-29T08:46:32;14.09;70.90
70271;SHT31;57680;54.292;18.598;2022-09-29T08:49:02;14.24;71.44
70271;SHT31;57680;54.292;18.598;2022-09-29T08:51:40;14.40;71.53
70271;SHT31;57680;54.292;18.598;2022-09-29T08:56:41;14.13;71.96
70271;SHT31;57680;54.292;18.598;2022-09-29T08:59:09;14.41;71.94
70271;SHT31;57680;54.292;18.598;2022-09-29T09:14:46;14.45;70.60
70271;SHT31;57680;54.292;18.598;2022-09-29T09:20:21;14.48;69.75
70271;SHT31;57680;54.292;18.598;2022-09-29T09:22:59;14.52;69.45
70271;SHT31;57680;54.292;18.598;2022-09-29T09:25:32;14.46;69.12
70271;SHT31;57680;54.292;18.598;2022-09-29T09:31:01;14.61;68.64
70271;SHT31;57680;54.292;18.598;2022-09-29T09:33:40;14.14;68.89
70271;SHT31;57680;54.292;18.598;2022-09-29T09:36:30;14.30;69.49
70271;SHT31;57680;54.292;18.598;2022-09-29T09:39:01;14.00;70.02
70271;SHT31;57680;54.292;18.598;2022-09-29T09:41:29;14.82;69.48
70271;SHT31;57680;54.292;18.598;2022-09-29T09:44:02;15.22;67.75
70271;SHT31;57680;54.292;18.598;2022-09-29T09:46:41;15.16;66.21
70271;SHT31;57680;54.292;18.598;2022-09-29T09:52:00;15.49;67.51
70271;SHT31;57680;54.292;18.598;2022-09-29T09:54:36;15.57;66.92
70271;SHT31;57680;54.292;18.598;2022-09-29T10:00:15;14.79;67.97
70271;SHT31;57680;54.292;18.598;2022-09-29T10:02:45;14.71;68.81
70271;SHT31;57680;54.292;18.598;2022-09-29T10:05:14;14.92;69.50
70271;SHT31;57680;54.292;18.598;2022-09-29T10:07:40;14.93;68.22
70271;SHT31;57680;54.292;18.598;2022-09-29T10:10:15;15.03;67.95
70271;SHT31;57680;54.292;18.598;2022-09-29T10:12:41;15.36;68.88
70271;SHT31;57680;54.292;18.598;2022-09-29T10:15:23;14.92;67.46
70271;SHT31;57680;54.292;18.598;2022-09-29T10:18:02;14.79;66.37
70271;SHT31;57680;54.292;18.598;2022-09-29T10:20:49;14.16;68.06
70271;SHT31;57680;54.292;18.598;2022-09-29T10:23:28;14.02;68.65
70271;SHT31;57680;54.292;18.598;2022-09-29T10:26:00;13.89;70.09
70271;SHT31;57680;54.292;18.598;2022-09-29T10:28:35;13.55;70.03
70271;SHT31;57680;54.292;18.598;2022-09-29T10:31:02;13.29;71.42
70271;SHT31;57680;54.292;18.598;2022-09-29T10:33:27;13.31;72.41
70271;SHT31;57680;54.292;18.598;2022-09-29T10:36:05;13.86;69.74
70271;SHT31;57680;54.292;18.598;2022-09-29T10:38:31;13.91;69.13
70271;SHT31;57680;54.292;18.598;2022-09-29T10:41:03;14.02;69.24
70271;SHT31;57680;54.292;18.598;2022-09-29T10:43:38;14.16;69.03
70271;SHT31;57680;54.292;18.598;2022-09-29T10:46:05;14.00;70.45
70271;SHT31;57680;54.292;18.598;2022-09-29T10:49:20;14.00;70.29
70271;SHT31;57680;54.292;18.598;2022-09-29T10:51:52;13.90;68.61
70271;SHT31;57680;54.292;18.598;2022-09-29T10:54:20;14.07;70.37
70271;SHT31;57680;54.292;18.598;2022-09-29T10:56:50;13.82;70.07
70271;SHT31;57680;54.292;18.598;2022-09-29T10:59:16;13.53;70.64
70271;SHT31;57680;54.292;18.598;2022-09-29T11:01:45;13.29;70.64
70271;SHT31;57680;54.292;18.598;2022-09-29T11:04:25;13.18;71.17
70271;SHT31;57680;54.292;18.598;2022-09-29T11:06:52;13.10;72.78
70271;SHT31;57680;54.292;18.598;2022-09-29T11:19:48;13.62;70.73
70271;SHT31;57680;54.292;18.598;2022-09-29T11:24:55;13.91;68.76
70271;SHT31;57680;54.292;18.598;2022-09-29T11:30:23;14.44;67.70
70271;SHT31;57680;54.292;18.598;2022-09-29T11:33:38;14.65;67.61
70271;SHT31;57680;54.292;18.598;2022-09-29T11:41:40;14.67;66.35
70271;SHT31;57680;54.292;18.598;2022-09-29T11:49:54;14.34;66.96
70271;SHT31;57680;54.292;18.598;2022-09-29T12:01:25;14.96;65.79
70271;SHT31;57680;54.292;18.598;2022-09-29T12:12:42;14.34;66.90
70271;SHT31;57680;54.292;18.598;2022-09-29T12:17:58;14.51;68.66
70271;SHT31;57680;54.292;18.598;2022-09-29T12:20:33;14.35;67.91
70271;SHT31;57680;54.292;18.598;2022-09-29T12:23:10;14.28;67.26
70271;SHT31;57680;54.292;18.598;2022-09-29T12:26:22;14.18;67.17
70271;SHT31;57680;54.292;18.598;2022-09-29T12:28:34;14.06;67.52
70271;SHT31;57680;54.292;18.598;2022-09-29T12:31:11;14.20;68.77
70271;SHT31;57680;54.292;18.598;2022-09-29T12:33:42;14.27;67.40
70271;SHT31;57680;54.292;18.598;2022-09-29T12:39:15;14.75;67.27
70271;SHT31;57680;54.292;18.598;2022-09-29T12:44:39;14.88;67.52
70271;SHT31;57680;54.292;18.598;2022-09-29T12:47:28;15.23;67.05
70271;SHT31;57680;54.292;18.598;2022-09-29T12:58:31;15.65;64.66
70271;SHT31;57680;54.292;18.598;2022-09-29T13:01:19;15.68;62.87
70271;SHT31;57680;54.292;18.598;2022-09-29T13:03:58;15.54;63.24
70271;SHT31;57680;54.292;18.598;2022-09-29T13:11:45;15.14;63.99
70271;SHT31;57680;54.292;18.598;2022-09-29T13:18:04;14.83;65.07
70271;SHT31;57680;54.292;18.598;2022-09-29T13:26:20;14.49;66.46
70271;SHT31;57680;54.292;18.598;2022-09-29T13:28:56;14.57;66.49
70271;SHT31;57680;54.292;18.598;2022-09-29T13:31:28;14.54;66.79
70271;SHT31;57680;54.292;18.598;2022-09-29T13:33:58;14.61;66.58
70271;SHT31;57680;54.292;18.598;2022-09-29T13:36:36;14.64;65.29
70271;SHT31;57680;54.292;18.598;2022-09-29T13:39:06;14.67;65.59
70271;SHT31;57680;54.292;18.598;2022-09-29T13:41:36;14.74;64.83
70271;SHT31;57680;54.292;18.598;2022-09-29T13:44:18;14.74;64.26
70271;SHT31;57680;54.292;18.598;2022-09-29T13:46:46;14.64;64.43
70271;SHT31;57680;54.292;18.598;2022-09-29T13:49:15;14.65;64.56
70271;SHT31;57680;54.292;18.598;2022-09-29T13:54:40;14.60;66.00
70271;SHT31;57680;54.292;18.598;2022-09-29T13:59:43;14.46;65.23
70271;SHT31;57680;54.292;18.598;2022-09-29T14:04:59;14.06;65.64
70271;SHT31;57680;54.292;18.598;2022-09-29T14:07:40;14.06;66.31
70271;SHT31;57680;54.292;18.598;2022-09-29T14:12:54;13.89;67.82
70271;SHT31;57680;54.292;18.598;2022-09-29T14:15:22;13.83;67.89
70271;SHT31;57680;54.292;18.598;2022-09-29T14:17:54;13.77;69.00
70271;SHT31;57680;54.292;18.598;2022-09-29T14:20:24;13.66;68.81
70271;SHT31;57680;54.292;18.598;2022-09-29T14:25:56;13.61;69.63
70271;SHT31;57680;54.292;18.598;2022-09-29T14:28:58;13.62;70.20
70271;SHT31;57680;54.292;18.598;2022-09-29T14:31:29;13.63;70.96
70271;SHT31;57680;54.292;18.598;2022-09-29T14:33:56;13.62;70.91
70271;SHT31;57680;54.292;18.598;2022-09-29T14:36:35;13.59;71.32
70271;SHT31;57680;54.292;18.598;2022-09-29T14:39:03;13.55;70.42
70271;SHT31;57680;54.292;18.598;2022-09-29T14:41:30;13.41;71.12
70271;SHT31;57680;54.292;18.598;2022-09-29T14:50:46;12.91;73.33
70271;SHT31;57680;54.292;18.598;2022-09-29T15:02:15;12.74;74.83
70271;SHT31;57680;54.292;18.598;2022-09-29T15:04:43;12.70;75.21
70271;SHT31;57680;54.292;18.598;2022-09-29T15:07:14;12.67;75.38
70271;SHT31;57680;54.292;18.598;2022-09-29T15:09:52;12.68;75.00
70271;SHT31;57680;54.292;18.598;2022-09-29T15:12:27;12.64;74.60
70271;SHT31;57680;54.292;18.598;2022-09-29T15:14:54;12.57;74.49
70271;SHT31;57680;54.292;18.598;2022-09-29T15:20:04;12.35;74.95
70271;SHT31;57680;54.292;18.598;2022-09-29T15:33:15;11.92;76.30
70271;SHT31;57680;54.292;18.598;2022-09-29T15:43:18;11.50;77.37
70271;SHT31;57680;54.292;18.598;2022-09-29T15:46:36;11.44;78.10
70271;SHT31;57680;54.292;18.598;2022-09-29T15:50:11;11.43;78.21
70271;SHT31;57680;54.292;18.598;2022-09-29T16:20:28;10.91;80.17
70271;SHT31;57680;54.292;18.598;2022-09-29T16:22:56;10.89;80.44
70271;SHT31;57680;54.292;18.598;2022-09-29T16:25:29;10.86;80.48
70271;SHT31;57680;54.292;18.598;2022-09-29T16:28:00;10.82;80.28
70271;SHT31;57680;54.292;18.598;2022-09-29T16:30:32;10.82;80.09
70271;SHT31;57680;54.292;18.598;2022-09-29T16:38:37;10.65;80.24
70271;SHT31;57680;54.292;18.598;2022-09-29T16:41:30;10.61;80.21
70271;SHT31;57680;54.292;18.598;2022-09-29T16:47:01;10.54;80.58
70271;SHT31;57680;54.292;18.598;2022-09-29T16:49:34;10.40;81.05
70271;SHT31;57680;54.292;18.598;2022-09-29T16:52:21;10.37;81.12
70271;SHT31;57680;54.292;18.598;2022-09-29T16:54:51;10.34;81.27
70271;SHT31;57680;54.292;18.598;2022-09-29T16:59:53;10.15;81.76
70271;SHT31;57680;54.292;18.598;2022-09-29T17:02:20;10.07;82.07
70271;SHT31;57680;54.292;18.598;2022-09-29T17:04:47;9.98;82.63
70271;SHT31;57680;54.292;18.598;2022-09-29T17:07:15;9.94;82.78
70271;SHT31;57680;54.292;18.598;2022-09-29T17:09:46;9.93;82.95
70271;SHT31;57680;54.292;18.598;2022-09-29T17:12:13;9.86;83.11
70271;SHT31;57680;54.292;18.598;2022-09-29T17:14:39;9.76;83.23
70271;SHT31;57680;54.292;18.598;2022-09-29T17:17:04;9.70;83.34
70271;SHT31;57680;54.292;18.598;2022-09-29T17:19:30;9.65;83.82
70271;SHT31;57680;54.292;18.598;2022-09-29T17:21:57;9.57;83.96
70271;SHT31;57680;54.292;18.598;2022-09-29T17:24:23;9.55;83.90
70271;SHT31;57680;54.292;18.598;2022-09-29T17:26:49;9.47;84.09
70271;SHT31;57680;54.292;18.598;2022-09-29T17:29:34;9.45;84.45
70271;SHT31;57680;54.292;18.598;2022-09-29T17:32:00;9.39;84.32
70271;SHT31;57680;54.292;18.598;2022-09-29T17:34:27;9.35;84.91
70271;SHT31;57680;54.292;18.598;2022-09-29T17:36:55;9.26;84.88
70271;SHT31;57680;54.292;18.598;2022-09-29T17:39:22;9.19;85.11
70271;SHT31;57680;54.292;18.598;2022-09-29T17:41:47;9.15;85.48
70271;SHT31;57680;54.292;18.598;2022-09-29T17:44:13;9.10;85.40
70271;SHT31;57680;54.292;18.598;2022-09-29T17:46:39;9.07;85.62
70271;SHT31;57680;54.292;18.598;2022-09-29T17:49:12;9.05;85.74
70271;SHT31;57680;54.292;18.598;2022-09-29T17:51:38;9.03;85.78
70271;SHT31;57680;54.292;18.598;2022-09-29T17:54:03;8.97;85.91
70271;SHT31;57680;54.292;18.598;2022-09-29T17:56:30;8.97;85.74
70271;SHT31;57680;54.292;18.598;2022-09-29T17:59:03;8.94;85.90
70271;SHT31;57680;54.292;18.598;2022-09-29T18:01:31;8.85;85.83
70271;SHT31;57680;54.292;18.598;2022-09-29T18:04:01;8.78;86.10
70271;SHT31;57680;54.292;18.598;2022-09-29T18:06:27;8.73;86.60
70271;SHT31;57680;54.292;18.598;2022-09-29T18:08:53;8.64;86.76
70271;SHT31;57680;54.292;18.598;2022-09-29T18:11:24;8.57;87.49
70271;SHT31;57680;54.292;18.598;2022-09-29T18:13:50;8.52;87.43
70271;SHT31;57680;54.292;18.598;2022-09-29T18:16:22;8.43;87.70
70271;SHT31;57680;54.292;18.598;2022-09-29T18:18:48;8.40;88.13
70271;SHT31;57680;54.292;18.598;2022-09-29T18:21:16;8.40;88.49
70271;SHT31;57680;54.292;18.598;2022-09-29T18:23:44;8.42;88.27
70271;SHT31;57680;54.292;18.598;2022-09-29T18:26:11;8.43;88.51
70271;SHT31;57680;54.292;18.598;2022-09-29T18:28:37;8.42;87.95
70271;SHT31;57680;54.292;18.598;2022-09-29T18:31:09;8.43;87.69
70271;SHT31;57680;54.292;18.598;2022-09-29T18:33:36;8.33;88.16
70271;SHT31;57680;54.292;18.598;2022-09-29T18:36:02;8.33;88.32
70271;SHT31;57680;54.292;18.598;2022-09-29T18:38:28;8.28;88.46
70271;SHT31;57680;54.292;18.598;2022-09-29T18:40:55;8.26;88.63
70271;SHT31;57680;54.292;18.598;2022-09-29T18:43:22;8.16;88.77
70271;SHT31;57680;54.292;18.598;2022-09-29T18:45:51;8.13;88.99
70271;SHT31;57680;54.292;18.598;2022-09-29T18:48:17;8.07;89.49
70271;SHT31;57680;54.292;18.598;2022-09-29T18:50:47;8.05;89.55
70271;SHT31;57680;54.292;18.598;2022-09-29T18:53:15;8.01;89.64
70271;SHT31;57680;54.292;18.598;2022-09-29T18:55:42;8.03;90.36
70271;SHT31;57680;54.292;18.598;2022-09-29T18:58:19;8.05;90.56
70271;SHT31;57680;54.292;18.598;2022-09-29T19:00:47;8.07;90.36
70271;SHT31;57680;54.292;18.598;2022-09-29T19:03:17;8.09;90.30
70271;SHT31;57680;54.292;18.598;2022-09-29T19:05:43;8.10;90.16
70271;SHT31;57680;54.292;18.598;2022-09-29T19:08:11;8.03;90.31
70271;SHT31;57680;54.292;18.598;2022-09-29T19:10:37;8.03;90.47
70271;SHT31;57680;54.292;18.598;2022-09-29T19:13:07;8.05;90.24
70271;SHT31;57680;54.292;18.598;2022-09-29T19:15:37;8.01;90.63
70271;SHT31;57680;54.292;18.598;2022-09-29T19:18:03;7.94;90.43
70271;SHT31;57680;54.292;18.598;2022-09-29T19:20:30;7.88;91.08
70271;SHT31;57680;54.292;18.598;2022-09-29T19:22:56;7.81;90.70
70271;SHT31;57680;54.292;18.598;2022-09-29T19:25:32;7.74;90.81
70271;SHT31;57680;54.292;18.598;2022-09-29T19:27:58;7.64;91.33
70271;SHT31;57680;54.292;18.598;2022-09-29T19:30:25;7.63;91.80
70271;SHT31;57680;54.292;18.598;2022-09-29T19:32:52;7.55;91.65